createdAt,value
2018-12-11T00:02:08.675Z,4.80
2018-12-11T00:04:36.300Z,4.80
2018-12-11T00:07:03.854Z,4.60
2018-12-11T00:09:31.386Z,4.50
2018-12-11T00:11:58.913Z,4.50
2018-12-11T00:14:26.421Z,4.50
2018-12-11T00:16:54.034Z,4.40
2018-12-11T00:19:21.531Z,4.40
2018-12-11T00:21:49.081Z,4.40
2018-12-11T00:24:16.701Z,4.40
2018-12-11T00:26:44.295Z,4.30
2018-12-11T00:29:11.875Z,4.40
2018-12-11T00:31:39.601Z,4.40
2018-12-11T00:34:07.152Z,4.40
2018-12-11T00:36:34.653Z,4.40
2018-12-11T00:39:02.198Z,4.40
2018-12-11T00:41:29.710Z,4.40
2018-12-11T00:43:57.329Z,4.30
2018-12-11T00:46:24.830Z,4.40
2018-12-11T00:48:52.390Z,4.50
2018-12-11T00:51:19.941Z,4.40
2018-12-11T00:53:47.480Z,4.60
2018-12-11T00:56:15.025Z,4.60
2018-12-11T00:58:42.595Z,4.60
2018-12-11T01:01:10.115Z,4.60
2018-12-11T01:03:37.673Z,4.70
2018-12-11T01:06:05.181Z,4.50
2018-12-11T01:08:32.738Z,4.60
2018-12-11T01:11:00.274Z,4.70
2018-12-11T01:13:27.768Z,4.60
2018-12-11T01:15:56.427Z,4.50
2018-12-11T01:18:23.977Z,4.60
2018-12-11T01:20:51.529Z,4.50
2018-12-11T01:23:19.047Z,4.40
2018-12-11T01:25:46.611Z,4.30
2018-12-11T01:28:14.166Z,4.40
2018-12-11T01:30:41.673Z,4.40
2018-12-11T01:33:09.528Z,4.30
2018-12-11T01:35:37.059Z,4.30
2018-12-11T01:38:04.630Z,4.30
2018-12-11T01:40:32.148Z,4.40
2018-12-11T01:42:59.690Z,4.50
2018-12-11T01:45:27.200Z,4.50
2018-12-11T01:47:54.694Z,4.60
2018-12-11T01:50:22.228Z,4.50
2018-12-11T01:52:49.883Z,4.40
2018-12-11T01:55:17.407Z,4.30
2018-12-11T01:57:44.905Z,4.30
2018-12-11T02:00:12.466Z,4.20
2018-12-11T02:02:39.992Z,4.10
2018-12-11T02:05:07.613Z,4.10
2018-12-11T02:07:35.162Z,4.10
2018-12-11T02:10:02.796Z,4.10
2018-12-11T02:12:30.949Z,4.00
2018-12-11T02:14:58.502Z,4.00
2018-12-11T02:17:26.060Z,4.00
2018-12-11T02:19:53.566Z,3.90
2018-12-11T02:22:21.112Z,3.90
2018-12-11T02:24:48.674Z,3.80
2018-12-11T02:27:16.197Z,3.90
2018-12-11T02:29:43.698Z,3.80
2018-12-11T02:32:11.247Z,3.80
2018-12-11T02:34:38.805Z,3.70
2018-12-11T02:37:06.317Z,3.70
2018-12-11T02:39:33.842Z,3.80
2018-12-11T02:42:01.403Z,3.80
2018-12-11T02:44:28.902Z,3.80
2018-12-11T02:46:56.463Z,3.90
2018-12-11T02:49:24.122Z,3.90
2018-12-11T02:51:51.682Z,3.90
2018-12-11T02:54:19.223Z,4.00
2018-12-11T02:56:46.802Z,4.10
2018-12-11T02:59:14.527Z,4.00
2018-12-11T03:01:42.295Z,4.00
2018-12-11T03:04:09.853Z,4.00
2018-12-11T03:06:37.418Z,3.90
2018-12-11T03:09:06.332Z,4.00
2018-12-11T03:11:33.873Z,3.90
2018-12-11T03:14:01.429Z,3.90
2018-12-11T03:16:28.980Z,3.80
2018-12-11T03:18:56.516Z,3.90
2018-12-11T03:21:24.287Z,4.00
2018-12-11T03:23:51.875Z,4.10
2018-12-11T03:26:19.400Z,4.10
2018-12-11T03:28:46.948Z,4.10
2018-12-11T03:31:14.446Z,4.10
2018-12-11T03:33:42.016Z,4.20
2018-12-11T03:36:09.522Z,4.20
2018-12-11T03:38:37.067Z,4.10
2018-12-11T03:41:04.826Z,4.20
2018-12-11T03:43:32.329Z,4.20
2018-12-11T03:45:59.882Z,4.20
2018-12-11T03:48:27.711Z,4.20
2018-12-11T03:50:55.250Z,4.30
2018-12-11T03:53:22.786Z,4.40
2018-12-11T03:55:50.334Z,4.40
2018-12-11T03:58:17.929Z,4.40
2018-12-11T04:00:45.553Z,4.40
2018-12-11T04:03:13.149Z,4.40
2018-12-11T04:05:40.707Z,4.40
2018-12-11T04:08:08.217Z,4.40
2018-12-11T04:10:35.761Z,4.50
2018-12-11T04:13:03.280Z,4.50
2018-12-11T04:15:30.787Z,4.30
2018-12-11T04:17:58.457Z,4.20
2018-12-11T04:20:26.263Z,4.10
2018-12-11T04:22:53.790Z,4.10
2018-12-11T04:25:21.363Z,3.90
2018-12-11T04:27:48.873Z,4.00
2018-12-11T04:30:16.379Z,3.90
2018-12-11T04:32:43.943Z,3.70
2018-12-11T04:35:11.491Z,3.70
2018-12-11T04:37:38.998Z,3.50
2018-12-11T04:40:07.109Z,3.40
2018-12-11T04:42:34.630Z,3.40
2018-12-11T04:45:02.243Z,3.40
2018-12-11T04:47:29.835Z,3.30
2018-12-11T04:49:57.379Z,3.30
2018-12-11T04:52:24.893Z,3.20
2018-12-11T04:54:52.459Z,3.20
2018-12-11T04:57:20.330Z,3.10
2018-12-11T04:59:47.962Z,3.10
2018-12-11T05:02:15.577Z,3.10
2018-12-11T05:04:45.067Z,3.10
2018-12-11T05:07:12.623Z,3.10
2018-12-11T05:09:40.141Z,3.10
2018-12-11T05:12:07.706Z,3.10
2018-12-11T05:14:35.205Z,3.30
2018-12-11T05:17:02.706Z,3.20
2018-12-11T05:19:30.307Z,3.30
2018-12-11T05:21:57.821Z,3.40
2018-12-11T05:24:25.325Z,3.30
2018-12-11T05:26:52.873Z,3.40
2018-12-11T05:29:20.394Z,3.20
2018-12-11T05:31:47.968Z,3.20
2018-12-11T05:34:15.473Z,3.30
2018-12-11T05:36:42.985Z,3.20
2018-12-11T05:39:10.537Z,3.30
2018-12-11T05:41:38.037Z,3.20
2018-12-11T05:44:05.850Z,3.30
2018-12-11T05:46:34.014Z,3.30
2018-12-11T05:49:01.550Z,3.20
2018-12-11T05:51:29.059Z,3.30
2018-12-11T05:53:56.695Z,3.20
2018-12-11T05:56:24.295Z,3.20
2018-12-11T05:58:51.845Z,3.20
2018-12-11T06:01:19.343Z,3.20
2018-12-11T06:03:46.846Z,3.10
2018-12-11T06:06:14.399Z,3.10
2018-12-11T06:08:41.910Z,3.10
2018-12-11T06:11:09.449Z,3.00
2018-12-11T06:13:36.956Z,3.00
2018-12-11T06:16:04.510Z,3.00
2018-12-11T06:18:32.017Z,3.00
2018-12-11T06:20:59.573Z,3.00
2018-12-11T06:23:27.625Z,3.00
2018-12-11T06:25:55.747Z,3.10
2018-12-11T06:28:23.597Z,3.00
2018-12-11T06:30:51.146Z,3.10
2018-12-11T06:33:18.925Z,3.10
2018-12-11T06:35:46.429Z,3.20
2018-12-11T06:38:13.956Z,3.30
2018-12-11T06:40:41.705Z,3.50
2018-12-11T06:43:09.668Z,3.40
2018-12-11T06:45:37.167Z,3.50
2018-12-11T06:48:04.700Z,3.60
2018-12-11T06:50:32.194Z,3.70
2018-12-11T06:52:59.734Z,3.60
2018-12-11T06:55:27.241Z,3.70
2018-12-11T06:57:54.771Z,3.70
2018-12-11T07:00:22.265Z,3.90
2018-12-11T07:02:49.833Z,3.70
2018-12-11T07:05:17.337Z,3.50
2018-12-11T07:07:44.874Z,3.50
2018-12-11T07:10:12.406Z,3.60
2018-12-11T07:12:39.899Z,3.50
2018-12-11T07:15:07.515Z,3.50
2018-12-11T07:17:35.055Z,3.50
2018-12-11T07:20:02.869Z,3.60
2018-12-11T07:22:30.361Z,3.60
2018-12-11T07:24:58.341Z,3.70
2018-12-11T07:27:26.026Z,3.70
2018-12-11T07:29:53.965Z,3.60
2018-12-11T07:32:21.518Z,3.80
2018-12-11T07:34:49.021Z,3.70
2018-12-11T07:37:16.539Z,3.90
2018-12-11T07:39:44.496Z,3.90
2018-12-11T07:42:12.004Z,4.10
2018-12-11T07:44:39.541Z,4.20
2018-12-11T07:47:07.375Z,4.30
2018-12-11T07:49:34.909Z,4.40
2018-12-11T07:52:02.414Z,4.50
2018-12-11T07:54:29.951Z,4.70
2018-12-11T07:56:57.674Z,4.60
2018-12-11T07:59:25.197Z,4.60
2018-12-11T08:01:52.792Z,4.70
2018-12-11T08:04:20.334Z,4.70
2018-12-11T08:06:47.824Z,4.70
2018-12-11T08:09:15.358Z,4.60
2018-12-11T08:11:42.857Z,4.60
2018-12-11T08:14:10.404Z,4.80
2018-12-11T08:16:37.990Z,4.80
2018-12-11T08:19:06.116Z,4.70
2018-12-11T08:21:33.649Z,4.80
2018-12-11T08:24:01.189Z,4.90
2018-12-11T08:26:28.696Z,5.00
2018-12-11T08:28:56.224Z,5.00
2018-12-11T08:31:24.004Z,4.90
2018-12-11T08:33:51.535Z,4.90
2018-12-11T08:36:19.069Z,5.00
2018-12-11T08:38:46.566Z,5.10
2018-12-11T08:41:14.096Z,5.20
2018-12-11T08:43:41.580Z,5.20
2018-12-11T08:46:09.453Z,5.00
2018-12-11T08:48:36.945Z,5.00
2018-12-11T08:51:04.780Z,5.10
2018-12-11T08:53:32.413Z,5.20
2018-12-11T08:55:59.945Z,4.90
2018-12-11T08:58:27.458Z,5.00
2018-12-11T09:00:55.294Z,5.20
2018-12-11T09:03:22.801Z,5.10
2018-12-11T09:05:50.294Z,5.10
2018-12-11T09:08:19.597Z,5.30
2018-12-11T09:10:47.272Z,5.60
2018-12-11T09:13:14.886Z,5.60
2018-12-11T09:15:42.381Z,5.70
2018-12-11T09:18:09.905Z,5.60
2018-12-11T09:20:37.437Z,5.50
2018-12-11T09:23:04.932Z,5.20
2018-12-11T09:25:32.424Z,5.10
2018-12-11T09:27:59.957Z,5.00
2018-12-11T09:30:27.469Z,5.00
2018-12-11T09:32:55.277Z,5.10
2018-12-11T09:35:22.768Z,5.00
2018-12-11T09:37:50.373Z,4.90
2018-12-11T09:40:24.385Z,5.10
2018-12-11T09:42:47.414Z,5.20
2018-12-11T09:45:14.913Z,5.20
2018-12-11T09:47:42.516Z,5.20
2018-12-11T09:50:10.017Z,5.10
2018-12-11T09:52:37.559Z,5.10
2018-12-11T09:55:05.205Z,5.20
2018-12-11T09:57:33.100Z,5.20
2018-12-11T10:00:00.874Z,5.30
2018-12-11T10:02:29.938Z,5.40
2018-12-11T10:04:57.469Z,5.50
2018-12-11T10:07:24.965Z,5.70
2018-12-11T10:09:52.724Z,5.90
2018-12-11T10:12:20.249Z,5.70
2018-12-11T10:14:47.780Z,5.50
2018-12-11T10:17:15.273Z,5.30
2018-12-11T10:19:42.826Z,5.10
2018-12-11T10:22:10.390Z,5.40
2018-12-11T10:24:38.171Z,5.50
2018-12-11T10:27:08.669Z,5.70
2018-12-11T10:29:36.166Z,5.60
2018-12-11T10:32:03.732Z,5.30
2018-12-11T10:34:31.266Z,5.50
2018-12-11T10:36:58.756Z,5.40
2018-12-11T10:39:26.588Z,5.60
2018-12-11T10:41:54.136Z,5.60
2018-12-11T10:44:21.642Z,5.60
2018-12-11T10:46:49.138Z,5.80
2018-12-11T10:49:16.672Z,5.90
2018-12-11T10:51:44.162Z,6.20
2018-12-11T10:54:12.025Z,6.10
2018-12-11T10:56:39.512Z,6.10
2018-12-11T10:59:07.038Z,6.00
2018-12-11T11:01:34.609Z,5.90
2018-12-11T11:04:02.173Z,5.60
2018-12-11T11:06:29.674Z,5.80
2018-12-11T11:08:57.170Z,5.80
2018-12-11T11:11:24.746Z,5.70
2018-12-11T11:13:52.329Z,5.60
2018-12-11T11:16:19.915Z,5.50
2018-12-11T11:18:47.405Z,5.60
2018-12-11T11:21:14.932Z,5.60
2018-12-11T11:23:42.421Z,5.60
2018-12-11T11:26:09.918Z,5.70
2018-12-11T11:28:37.463Z,5.70
2018-12-11T11:31:04.953Z,5.70
2018-12-11T11:33:32.480Z,5.50
2018-12-11T11:35:59.974Z,5.50
2018-12-11T11:38:28.656Z,5.70
2018-12-11T11:40:56.153Z,5.80
2018-12-11T11:43:23.677Z,5.90
2018-12-11T11:45:51.173Z,5.90
2018-12-11T11:48:18.698Z,6.10
2018-12-11T11:50:46.274Z,6.40
2018-12-11T11:53:14.046Z,6.00
2018-12-11T11:55:41.717Z,6.00
2018-12-11T11:58:09.252Z,5.70
2018-12-11T12:00:36.749Z,5.70
2018-12-11T12:03:04.619Z,5.80
2018-12-11T12:05:32.192Z,6.00
2018-12-11T12:07:59.681Z,6.00
2018-12-11T12:10:27.215Z,6.20
2018-12-11T12:12:54.708Z,6.30
2018-12-11T12:15:22.237Z,6.40
2018-12-11T12:17:49.976Z,6.70
2018-12-11T12:20:17.508Z,6.80
2018-12-11T12:22:45.004Z,6.80
2018-12-11T12:25:12.553Z,6.70
2018-12-11T12:27:40.046Z,6.80
2018-12-11T12:30:07.688Z,6.70
2018-12-11T12:32:35.223Z,6.60
2018-12-11T12:35:02.713Z,6.70
2018-12-11T12:37:30.259Z,6.60
2018-12-11T12:39:57.912Z,6.60
2018-12-11T12:42:25.435Z,6.70
2018-12-11T12:44:52.928Z,6.60
2018-12-11T12:47:20.485Z,6.50
2018-12-11T12:49:50.749Z,6.40
2018-12-11T12:52:17.558Z,6.40
2018-12-11T12:54:45.096Z,6.40
2018-12-11T12:57:12.592Z,6.30
2018-12-11T12:59:40.118Z,6.10
2018-12-11T13:02:07.604Z,6.20
2018-12-11T13:04:35.124Z,6.10
2018-12-11T13:07:02.648Z,6.20
2018-12-11T13:09:30.166Z,6.10
2018-12-11T13:11:57.692Z,6.00
2018-12-11T13:14:25.222Z,6.00
2018-12-11T13:16:52.721Z,6.00
2018-12-11T13:19:20.252Z,6.00
2018-12-11T13:21:47.741Z,6.00
2018-12-11T13:24:15.270Z,6.10
2018-12-11T13:26:42.768Z,6.20
2018-12-11T13:29:10.297Z,6.20
2018-12-11T13:31:37.793Z,6.40
2018-12-11T13:34:05.336Z,6.40
2018-12-11T13:36:32.829Z,6.30
2018-12-11T13:39:00.472Z,6.40
2018-12-11T13:41:27.969Z,6.60
2018-12-11T13:43:55.605Z,6.60
2018-12-11T13:46:23.130Z,6.60
2018-12-11T13:48:50.778Z,6.70
2018-12-11T13:51:18.269Z,6.60
2018-12-11T13:53:45.809Z,6.60
2018-12-11T13:56:13.327Z,6.50
2018-12-11T13:58:40.832Z,6.40
2018-12-11T14:01:08.432Z,6.50
2018-12-11T14:03:35.922Z,6.30
2018-12-11T14:06:03.447Z,6.30
2018-12-11T14:08:31.041Z,6.30
2018-12-11T14:10:58.544Z,6.30
2018-12-11T14:13:26.065Z,6.30
2018-12-11T14:15:53.573Z,6.10
2018-12-11T14:18:21.104Z,6.10
2018-12-11T14:20:48.747Z,6.20
2018-12-11T14:23:16.280Z,6.20
2018-12-11T14:25:43.775Z,6.10
2018-12-11T14:28:11.392Z,6.10
2018-12-11T14:30:39.031Z,6.10
2018-12-11T14:33:06.524Z,5.80
2018-12-11T14:35:34.057Z,5.80
2018-12-11T14:38:01.601Z,5.70
2018-12-11T14:40:29.087Z,5.50
2018-12-11T14:42:56.577Z,5.50
2018-12-11T14:45:24.100Z,5.60
2018-12-11T14:47:51.623Z,5.50
2018-12-11T14:50:19.112Z,5.50
2018-12-11T14:52:46.641Z,5.50
2018-12-11T14:55:14.176Z,5.40
2018-12-11T14:57:41.671Z,5.40
2018-12-11T15:00:09.272Z,5.40
2018-12-11T15:02:37.149Z,5.50
2018-12-11T15:05:05.599Z,5.40
2018-12-11T15:07:33.097Z,5.40
2018-12-11T15:10:00.655Z,5.30
2018-12-11T15:12:28.153Z,5.30
2018-12-11T15:14:55.693Z,5.40
2018-12-11T15:17:23.188Z,5.50
2018-12-11T15:19:50.718Z,5.40
2018-12-11T15:22:18.220Z,5.40
2018-12-11T15:24:45.712Z,5.30
2018-12-11T15:27:13.252Z,5.20
2018-12-11T15:29:40.750Z,5.20
2018-12-11T15:32:08.281Z,5.20
2018-12-11T15:34:35.776Z,5.10
2018-12-11T15:37:03.318Z,5.20
2018-12-11T15:39:35.867Z,5.20
2018-12-11T15:42:00.365Z,5.20
2018-12-11T15:44:27.853Z,5.10
2018-12-11T15:46:55.384Z,5.00
2018-12-11T15:49:23.010Z,5.00
2018-12-11T15:51:50.623Z,5.00
2018-12-11T15:54:18.165Z,5.00
2018-12-11T15:56:45.933Z,4.80
2018-12-11T15:59:13.461Z,4.90
2018-12-11T16:01:40.956Z,5.00
2018-12-11T16:04:08.504Z,5.00
2018-12-11T16:06:35.996Z,4.90
2018-12-11T16:09:08.353Z,5.00
2018-12-11T16:11:35.852Z,4.90
2018-12-11T16:14:03.345Z,4.90
2018-12-11T16:16:30.882Z,4.90
2018-12-11T16:18:58.380Z,4.90
2018-12-11T16:21:25.909Z,4.80
2018-12-11T16:23:53.437Z,4.90
2018-12-11T16:26:20.933Z,4.90
2018-12-11T16:28:48.457Z,4.80
2018-12-11T16:31:16.601Z,4.80
2018-12-11T16:33:44.130Z,4.70
2018-12-11T16:36:11.626Z,4.60
2018-12-11T16:38:39.153Z,4.60
2018-12-11T16:41:06.640Z,4.70
2018-12-11T16:43:34.174Z,4.80
2018-12-11T16:46:01.672Z,4.70
2018-12-11T16:48:29.213Z,4.80
2018-12-11T16:50:57.376Z,4.80
2018-12-11T16:53:24.904Z,4.80
2018-12-11T16:55:52.399Z,4.70
2018-12-11T16:58:19.948Z,4.80
2018-12-11T17:00:47.445Z,4.80
2018-12-11T17:03:14.940Z,4.90
2018-12-11T17:05:42.483Z,4.90
2018-12-11T17:08:10.213Z,4.80
2018-12-11T17:10:37.709Z,4.70
2018-12-11T17:13:05.312Z,4.70
2018-12-11T17:15:32.885Z,4.60
2018-12-11T17:18:00.421Z,4.70
2018-12-11T17:20:27.922Z,4.80
2018-12-11T17:22:55.462Z,4.80
2018-12-11T17:25:22.998Z,4.60
2018-12-11T17:27:50.553Z,4.60
2018-12-11T17:30:18.316Z,4.60
2018-12-11T17:32:45.863Z,4.40
2018-12-11T17:35:13.518Z,4.30
2018-12-11T17:37:41.018Z,4.40
2018-12-11T17:40:08.625Z,4.40
2018-12-11T17:42:36.116Z,4.40
2018-12-11T17:45:05.081Z,4.40
2018-12-11T17:47:32.588Z,4.40
2018-12-11T17:50:00.145Z,4.50
2018-12-11T17:52:27.632Z,4.50
2018-12-11T17:54:55.120Z,4.50
2018-12-11T17:57:22.659Z,4.40
2018-12-11T17:59:50.161Z,4.40
2018-12-11T18:02:19.672Z,4.40
2018-12-11T18:04:47.210Z,4.30
2018-12-11T18:07:14.741Z,4.20
2018-12-11T18:09:42.237Z,4.10
2018-12-11T18:12:11.481Z,4.10
2018-12-11T18:14:39.009Z,4.00
2018-12-11T18:17:06.505Z,4.10
2018-12-11T18:19:34.039Z,4.10
2018-12-11T18:22:01.532Z,4.20
2018-12-11T18:24:29.800Z,4.20
2018-12-11T18:26:57.298Z,4.20
2018-12-11T18:29:24.832Z,4.20
2018-12-11T18:31:52.326Z,4.30
2018-12-11T18:34:19.932Z,4.30
2018-12-11T18:36:47.750Z,4.30
2018-12-11T18:39:15.285Z,4.20
2018-12-11T18:41:42.919Z,4.20
2018-12-11T18:44:10.413Z,4.30
2018-12-11T18:46:37.951Z,4.30
2018-12-11T18:49:05.443Z,4.40
2018-12-11T18:51:32.973Z,4.30
2018-12-11T18:54:00.468Z,4.30
2018-12-11T18:56:28.003Z,4.20
2018-12-11T18:58:55.534Z,4.20
2018-12-11T19:01:23.197Z,4.20
2018-12-11T19:03:50.969Z,4.20
2018-12-11T19:06:18.461Z,4.30
2018-12-11T19:08:46.013Z,4.20
2018-12-11T19:11:13.505Z,4.30
2018-12-11T19:13:41.107Z,4.30
2018-12-11T19:16:08.685Z,4.20
2018-12-11T19:18:36.927Z,4.10
2018-12-11T19:21:04.484Z,4.10
2018-12-11T19:23:32.264Z,4.10
2018-12-11T19:25:59.759Z,4.20
2018-12-11T19:28:27.302Z,4.30
2018-12-11T19:30:54.797Z,4.20
2018-12-11T19:33:22.317Z,4.20
2018-12-11T19:35:49.845Z,4.30
2018-12-11T19:38:17.351Z,4.40
2018-12-11T19:40:44.941Z,4.50
2018-12-11T19:43:12.440Z,4.60
2018-12-11T19:45:39.960Z,4.60
2018-12-11T19:48:07.453Z,4.40
2018-12-11T19:50:34.977Z,4.30
2018-12-11T19:53:02.482Z,4.30
2018-12-11T19:55:30.004Z,4.30
2018-12-11T19:57:59.771Z,4.30
2018-12-11T20:00:27.082Z,4.40
2018-12-11T20:02:54.596Z,4.40
2018-12-11T20:05:22.142Z,4.50
2018-12-11T20:07:49.670Z,4.50
2018-12-11T20:10:18.516Z,4.50
2018-12-11T20:12:46.327Z,4.40
2018-12-11T20:15:13.933Z,4.40
2018-12-11T20:17:41.434Z,4.40
2018-12-11T20:20:12.910Z,4.30
2018-12-11T20:22:40.427Z,4.20
2018-12-11T20:25:07.961Z,4.30
2018-12-11T20:27:35.495Z,4.40
2018-12-11T20:30:03.988Z,4.50
2018-12-11T20:32:31.499Z,4.50
2018-12-11T20:34:59.026Z,4.40
2018-12-11T20:37:26.537Z,4.40
2018-12-11T20:39:54.296Z,4.30
2018-12-11T20:42:21.809Z,4.50
2018-12-11T20:44:49.353Z,4.30
2018-12-11T20:47:16.891Z,4.40
2018-12-11T20:49:44.439Z,4.30
2018-12-11T20:52:11.936Z,4.30
2018-12-11T20:54:39.446Z,4.30
2018-12-11T20:57:07.014Z,4.40
2018-12-11T20:59:34.529Z,4.40
2018-12-11T21:02:02.074Z,4.30
2018-12-11T21:04:29.621Z,4.50
2018-12-11T21:06:57.157Z,4.50
2018-12-11T21:09:24.660Z,4.40
2018-12-11T21:11:52.194Z,4.40
2018-12-11T21:14:19.705Z,4.30
2018-12-11T21:16:47.274Z,4.30
2018-12-11T21:19:15.396Z,4.30
2018-12-11T21:21:43.226Z,4.20
2018-12-11T21:24:11.022Z,4.20
2018-12-11T21:26:38.563Z,4.20
2018-12-11T21:29:06.142Z,4.20
2018-12-11T21:31:33.676Z,4.20
2018-12-11T21:34:01.188Z,4.30
2018-12-11T21:36:29.471Z,4.30
2018-12-11T21:38:57.099Z,4.30
2018-12-11T21:41:24.632Z,4.30
2018-12-11T21:43:52.169Z,4.30
2018-12-11T21:46:19.675Z,4.30
2018-12-11T21:48:47.218Z,4.20
2018-12-11T21:51:14.747Z,4.20
2018-12-11T21:53:42.281Z,4.20
2018-12-11T21:56:09.798Z,4.20
2018-12-11T21:58:37.327Z,4.10
2018-12-11T22:01:04.840Z,4.10
2018-12-11T22:03:32.372Z,4.10
2018-12-11T22:06:00.273Z,4.20
2018-12-11T22:08:27.814Z,4.20
2018-12-11T22:10:55.320Z,4.20
2018-12-11T22:13:22.858Z,4.20
2018-12-11T22:15:50.368Z,4.20
2018-12-11T22:18:17.912Z,4.10
2018-12-11T22:20:45.429Z,4.30
2018-12-11T22:23:12.973Z,4.40
2018-12-11T22:25:40.473Z,4.40
2018-12-11T22:28:08.004Z,4.40
2018-12-11T22:30:35.513Z,4.40
2018-12-11T22:33:03.060Z,4.40
2018-12-11T22:35:30.567Z,4.30
2018-12-11T22:37:58.116Z,4.30
2018-12-11T22:40:25.643Z,4.20
2018-12-11T22:42:53.167Z,4.20
2018-12-11T22:45:20.718Z,4.20
2018-12-11T22:47:48.273Z,4.20
2018-12-11T22:50:15.769Z,4.20
2018-12-11T22:52:43.302Z,4.10
2018-12-11T22:55:10.803Z,4.10
2018-12-11T22:57:38.299Z,4.20
2018-12-11T23:00:07.957Z,4.10
2018-12-11T23:02:35.444Z,4.20
2018-12-11T23:05:03.036Z,4.20
2018-12-11T23:07:30.524Z,4.10
2018-12-11T23:09:58.049Z,4.20
2018-12-11T23:12:25.553Z,4.10
2018-12-11T23:14:53.069Z,4.10
2018-12-11T23:17:20.565Z,4.10
2018-12-11T23:19:48.083Z,4.10
2018-12-11T23:22:15.581Z,4.00
2018-12-11T23:24:43.483Z,4.00
2018-12-11T23:27:11.061Z,4.10
2018-12-11T23:29:38.654Z,4.30
2018-12-11T23:32:06.166Z,4.30
2018-12-11T23:34:33.724Z,4.10
2018-12-11T23:37:01.231Z,4.10
2018-12-11T23:39:28.780Z,4.00
2018-12-11T23:41:56.327Z,4.10
2018-12-11T23:44:23.867Z,4.00
2018-12-11T23:46:51.366Z,4.00
2018-12-11T23:49:18.981Z,3.90
2018-12-11T23:51:46.512Z,3.90
2018-12-11T23:54:14.056Z,3.90
2018-12-11T23:56:41.606Z,3.90
2018-12-11T23:59:09.179Z,3.90
